createdAt,value
2022-08-26T00:06:46.448Z,101010.13
2022-08-26T00:13:49.504Z,101015.78
2022-08-26T00:20:51.480Z,101018.53
2022-08-26T00:27:53.109Z,101015.22
2022-08-26T00:34:57.508Z,101012.97
2022-08-26T00:42:00.421Z,101002.47
2022-08-26T00:49:12.189Z,101002.81
2022-08-26T00:56:21.588Z,101002.56
2022-08-26T01:03:23.819Z,100995.66
2022-08-26T01:10:28.007Z,100994.47
2022-08-26T01:17:29.869Z,101005.31
2022-08-26T01:24:35.454Z,100995.81
2022-08-26T01:31:42.585Z,100993.59
2022-08-26T01:38:44.568Z,100991.66
2022-08-26T01:45:46.413Z,100993.50
2022-08-26T01:52:54.193Z,100987.69
2022-08-26T01:59:58.962Z,100977.88
2022-08-26T02:07:03.355Z,100977.69
2022-08-26T02:14:26.771Z,100976.81
2022-08-26T02:21:29.252Z,100974.56
2022-08-26T02:28:34.689Z,100983.47
2022-08-26T02:35:37.554Z,100977.09
2022-08-26T02:42:39.228Z,100964.69
2022-08-26T02:49:42.577Z,100967.78
2022-08-26T02:56:45.963Z,100967.59
2022-08-26T03:03:47.569Z,100953.84
2022-08-26T03:10:51.202Z,100956.78
2022-08-26T03:17:52.846Z,100948.34
2022-08-26T03:24:54.568Z,100951.44
2022-08-26T03:31:56.286Z,100943.22
2022-08-26T03:38:57.927Z,100942.34
2022-08-26T03:45:59.524Z,100936.31
2022-08-26T03:53:01.261Z,100940.09
2022-08-26T04:00:08.795Z,100932.28
2022-08-26T04:07:10.526Z,100931.44
2022-08-26T04:14:17.715Z,100926.25
2022-08-26T04:21:22.022Z,100932.25
2022-08-26T04:28:24.791Z,100939.78
2022-08-26T04:35:26.448Z,100927.22
2022-08-26T04:42:29.273Z,100927.03
2022-08-26T04:49:35.600Z,100922.72
2022-08-26T04:56:38.895Z,100929.44
2022-08-26T05:03:40.947Z,100925.50
2022-08-26T05:10:45.239Z,100929.81
2022-08-26T05:17:46.844Z,100933.91
2022-08-26T05:24:48.747Z,100943.47
2022-08-26T05:31:51.670Z,100946.78
2022-08-26T05:38:53.317Z,100954.06
2022-08-26T05:45:55.003Z,100948.09
2022-08-26T05:52:57.832Z,100947.78
2022-08-26T06:00:00.884Z,100952.13
2022-08-26T06:07:02.701Z,100948.72
2022-08-26T06:14:07.802Z,100946.50
2022-08-26T06:21:19.496Z,100940.38
2022-08-26T06:28:21.133Z,100940.03
2022-08-26T06:35:22.805Z,100934.72
2022-08-26T06:42:25.650Z,100934.25
2022-08-26T06:49:28.337Z,100938.75
2022-08-26T06:56:35.622Z,100936.72
2022-08-26T07:03:39.733Z,100935.84
2022-08-26T07:10:42.422Z,100926.84
2022-08-26T07:17:44.041Z,100928.22
2022-08-26T07:24:45.719Z,100923.25
2022-08-26T07:31:47.487Z,100916.47
2022-08-26T07:38:50.904Z,100919.53
2022-08-26T07:45:52.595Z,100908.59
2022-08-26T07:52:54.395Z,100903.19
2022-08-26T07:59:56.150Z,100908.50
2022-08-26T08:06:58.344Z,100908.41
2022-08-26T08:14:01.569Z,100904.72
2022-08-26T08:21:21.330Z,100899.13
2022-08-26T08:28:25.241Z,100895.22
2022-08-26T08:35:26.906Z,100891.91
2022-08-26T08:42:44.041Z,100879.31
2022-08-26T08:49:45.533Z,100870.97
2022-08-26T08:56:52.958Z,100869.78
2022-08-26T09:04:11.586Z,100860.59
2022-08-26T09:11:13.754Z,100863.72
2022-08-26T09:18:37.567Z,100858.78
2022-08-26T09:25:50.611Z,100858.84
2022-08-26T09:33:10.145Z,100856.94
2022-08-26T09:40:34.853Z,100859.94
2022-08-26T09:47:46.166Z,100846.25
2022-08-26T09:55:09.781Z,100840.44
2022-08-26T10:02:26.973Z,100823.66
2022-08-26T10:09:31.069Z,100803.66
2022-08-26T10:16:50.593Z,100788.16
2022-08-26T10:23:55.141Z,100773.78
2022-08-26T10:31:20.288Z,100758.13
2022-08-26T10:38:44.376Z,100743.91
2022-08-26T10:45:51.714Z,100738.72
2022-08-26T10:52:56.330Z,100726.00
2022-08-26T11:00:36.189Z,100715.41
2022-08-26T11:07:51.316Z,100698.59
2022-08-26T11:14:58.698Z,100693.72
2022-08-26T11:22:12.299Z,100692.94
2022-08-26T11:29:14.569Z,100681.25
2022-08-26T11:36:47.036Z,100668.88
2022-08-26T11:43:50.343Z,100665.06
2022-08-26T11:50:53.903Z,100656.53
2022-08-26T11:57:57.246Z,100669.81
2022-08-26T12:04:58.914Z,100687.97
2022-08-26T12:12:35.274Z,100719.03
2022-08-26T12:19:38.179Z,100746.53
2022-08-26T12:26:39.838Z,100759.31
2022-08-26T12:33:41.560Z,100770.03
2022-08-26T12:40:44.101Z,100774.63
2022-08-26T12:47:45.822Z,100758.72
2022-08-26T12:54:59.089Z,100746.28
2022-08-26T13:02:01.956Z,100802.94
2022-08-26T13:09:09.656Z,100807.25
2022-08-26T13:16:12.048Z,100778.38
2022-08-26T13:23:14.689Z,100749.41
2022-08-26T13:30:16.720Z,100765.56
2022-08-26T13:37:22.431Z,100736.50
2022-08-26T13:44:38.877Z,100724.81
2022-08-26T13:51:40.616Z,100720.88
2022-08-26T13:58:42.324Z,100697.19
2022-08-26T14:05:44.068Z,100693.41
2022-08-26T14:12:45.870Z,100693.25
2022-08-26T14:19:49.148Z,100695.63
2022-08-26T14:26:50.907Z,100737.91
2022-08-26T14:33:52.595Z,100777.94
2022-08-26T14:40:54.276Z,100718.13
2022-08-26T14:47:56.982Z,100716.06
2022-08-26T14:54:58.686Z,100728.94
2022-08-26T15:02:00.847Z,100764.25
2022-08-26T15:09:03.193Z,100704.13
2022-08-26T15:16:05.062Z,100679.34
2022-08-26T15:23:07.418Z,100670.47
2022-08-26T15:30:10.677Z,100658.13
2022-08-26T15:37:12.521Z,100658.22
2022-08-26T15:44:16.146Z,100659.28
2022-08-26T15:51:26.076Z,100644.16
2022-08-26T15:58:28.134Z,100625.31
2022-08-26T16:05:29.902Z,100616.94
2022-08-26T16:12:31.646Z,100631.84
2022-08-26T16:19:33.327Z,100639.38
2022-08-26T16:26:36.431Z,100654.31
2022-08-26T16:33:38.114Z,100631.63
2022-08-26T16:40:40.587Z,100605.72
2022-08-26T16:47:42.327Z,100614.41
2022-08-26T16:54:44.016Z,100634.19
2022-08-26T17:01:45.794Z,100636.59
2022-08-26T17:08:47.903Z,100639.16
2022-08-26T17:15:54.215Z,100644.16
2022-08-26T17:23:00.171Z,100656.22
2022-08-26T17:30:01.935Z,100659.78
2022-08-26T17:37:03.656Z,100645.91
2022-08-26T17:44:05.458Z,100654.00
2022-08-26T17:51:12.466Z,100658.44
2022-08-26T17:58:14.977Z,100654.66
2022-08-26T18:05:17.518Z,100642.78
2022-08-26T18:12:19.269Z,100625.09
2022-08-26T18:19:20.887Z,100629.16
2022-08-26T18:26:48.171Z,100631.22
2022-08-26T18:33:50.001Z,100636.19
2022-08-26T18:40:52.219Z,100631.88
2022-08-26T18:47:53.933Z,100620.19
2022-08-26T18:54:55.570Z,100609.94
2022-08-26T19:01:57.353Z,100604.97
2022-08-26T19:08:59.820Z,100609.28
2022-08-26T19:16:01.895Z,100625.91
2022-08-26T19:23:10.607Z,100635.31
2022-08-26T19:30:23.392Z,100662.66
2022-08-26T19:37:25.076Z,100669.09
2022-08-26T19:44:45.263Z,100667.19
2022-08-26T19:51:46.920Z,100675.59
2022-08-26T19:58:49.159Z,100681.25
2022-08-26T20:05:50.784Z,100681.41
2022-08-26T20:12:52.587Z,100688.22
2022-08-26T20:20:28.449Z,100698.50
2022-08-26T20:27:38.367Z,100702.41
2022-08-26T20:34:40.297Z,100709.78
2022-08-26T20:41:43.144Z,100721.28
2022-08-26T20:48:45.017Z,100718.06
2022-08-26T20:55:46.683Z,100721.13
2022-08-26T21:02:51.409Z,100720.09
2022-08-26T21:09:53.143Z,100704.97
2022-08-26T21:16:55.230Z,100724.75
2022-08-26T21:23:57.038Z,100722.44
2022-08-26T21:31:02.102Z,100697.63
2022-08-26T21:38:03.800Z,100702.22
2022-08-26T21:45:06.185Z,100683.75
2022-08-26T21:52:07.864Z,100683.16
2022-08-26T21:59:09.583Z,100681.06
2022-08-26T22:06:11.377Z,100681.34
2022-08-26T22:13:14.036Z,100686.53
2022-08-26T22:20:17.173Z,100698.28
2022-08-26T22:27:19.004Z,100694.28
2022-08-26T22:34:22.857Z,100676.75
2022-08-26T22:41:24.763Z,100651.88
2022-08-26T22:48:26.942Z,100624.97
2022-08-26T22:55:28.647Z,100611.56
2022-08-26T23:02:30.320Z,100586.38
2022-08-26T23:16:39.114Z,100643.25
2022-08-26T23:23:41.452Z,100649.38
2022-08-26T23:30:43.603Z,100638.69
2022-08-26T23:37:46.077Z,100633.53
2022-08-26T23:44:48.832Z,100633.84
2022-08-26T23:52:09.221Z,100648.69
2022-08-26T23:59:10.899Z,100652.84
